createdAt,value
2022-11-28T00:01:20.734Z,12.90
2022-11-28T00:03:50.147Z,11.27
2022-11-28T00:06:18.589Z,12.60
2022-11-28T00:08:46.551Z,12.77
2022-11-28T00:11:16.088Z,11.33
2022-11-28T00:13:44.441Z,12.37
2022-11-28T00:16:16.797Z,9.20
2022-11-28T00:18:45.056Z,13.20
2022-11-28T00:21:16.521Z,10.50
2022-11-28T00:23:46.017Z,10.80
2022-11-28T00:26:20.551Z,11.70
2022-11-28T00:28:49.349Z,11.77
2022-11-28T00:31:19.683Z,13.73
2022-11-28T00:33:48.145Z,12.50
2022-11-28T00:36:18.244Z,11.27
2022-11-28T00:38:46.599Z,12.57
2022-11-28T00:41:16.148Z,10.03
2022-11-28T00:43:45.722Z,10.97
2022-11-28T00:46:14.912Z,12.40
2022-11-28T00:48:43.322Z,11.07
2022-11-28T00:51:13.187Z,13.13
2022-11-28T00:53:44.570Z,10.73
2022-11-28T00:56:14.484Z,10.23
2022-11-28T00:58:43.164Z,10.50
2022-11-28T01:01:12.535Z,9.23
2022-11-28T01:03:40.805Z,9.43
2022-11-28T01:06:10.166Z,11.77
2022-11-28T01:08:38.604Z,12.40
2022-11-28T01:11:12.402Z,10.20
2022-11-28T01:13:40.638Z,10.50
2022-11-28T01:16:09.053Z,10.93
2022-11-28T01:18:37.394Z,9.50
2022-11-28T01:21:05.481Z,10.53
2022-11-28T01:23:33.447Z,9.17
2022-11-28T01:26:02.280Z,9.83
2022-11-28T01:28:31.662Z,10.20
2022-11-28T01:31:04.886Z,9.80
2022-11-28T01:33:32.984Z,9.00
2022-11-28T01:36:01.264Z,9.80
2022-11-28T01:38:30.131Z,11.23
2022-11-28T01:40:58.292Z,10.13
2022-11-28T01:43:27.059Z,10.90
2022-11-28T01:45:56.938Z,9.70
2022-11-28T01:48:27.550Z,12.07
2022-11-28T01:51:01.197Z,10.57
2022-11-28T01:53:31.627Z,12.50
2022-11-28T01:56:03.002Z,11.80
2022-11-28T01:58:34.160Z,10.70
2022-11-28T02:01:04.507Z,10.17
2022-11-28T02:03:37.143Z,9.60
2022-11-28T02:06:05.371Z,11.87
2022-11-28T02:08:34.885Z,11.67
2022-11-28T02:11:24.141Z,10.90
2022-11-28T02:14:04.513Z,10.93
2022-11-28T02:16:47.007Z,11.80
2022-11-28T02:19:49.706Z,10.90
2022-11-28T02:22:23.695Z,10.23
2022-11-28T02:25:08.709Z,11.10
2022-11-28T02:28:16.113Z,12.40
2022-11-28T02:30:58.742Z,10.57
2022-11-28T02:33:32.926Z,12.97
2022-11-28T02:36:10.502Z,12.03
2022-11-28T02:38:52.828Z,12.10
2022-11-28T02:41:28.906Z,12.93
2022-11-28T02:44:04.917Z,12.00
2022-11-28T02:46:42.085Z,12.63
2022-11-28T02:49:16.903Z,11.57
2022-11-28T02:51:48.400Z,10.73
2022-11-28T02:54:19.138Z,11.53
2022-11-28T02:56:49.776Z,12.60
2022-11-28T02:59:34.148Z,12.20
2022-11-28T03:02:03.164Z,11.03
2022-11-28T03:04:45.762Z,13.07
2022-11-28T03:07:24.340Z,11.40
2022-11-28T03:10:08.441Z,11.73
2022-11-28T03:12:51.840Z,11.30
2022-11-28T03:15:23.625Z,10.60
2022-11-28T03:17:57.830Z,11.47
2022-11-28T03:20:37.773Z,10.70
2022-11-28T03:23:14.749Z,10.40
2022-11-28T03:25:50.956Z,11.40
2022-11-28T03:28:25.615Z,13.07
2022-11-28T03:30:59.422Z,12.67
2022-11-28T03:33:31.140Z,12.30
2022-11-28T03:36:05.196Z,10.87
2022-11-28T03:38:37.509Z,10.73
2022-11-28T03:41:11.484Z,11.90
2022-11-28T03:43:45.087Z,11.23
2022-11-28T03:46:16.963Z,11.43
2022-11-28T03:48:48.433Z,11.47
2022-11-28T03:51:19.542Z,10.23
2022-11-28T03:53:53.336Z,12.47
2022-11-28T03:56:26.065Z,9.87
2022-11-28T03:58:59.163Z,11.37
2022-11-28T04:01:33.086Z,11.40
2022-11-28T04:04:10.717Z,10.33
2022-11-28T04:06:53.438Z,8.90
2022-11-28T04:09:32.066Z,10.50
2022-11-28T04:12:08.774Z,8.43
2022-11-28T04:14:41.098Z,11.33
2022-11-28T04:17:14.141Z,11.50
2022-11-28T04:19:46.283Z,11.70
2022-11-28T04:22:20.753Z,12.57
2022-11-28T04:24:52.679Z,11.73
2022-11-28T04:27:24.362Z,10.30
2022-11-28T04:29:54.968Z,11.00
2022-11-28T04:32:24.435Z,11.83
2022-11-28T04:34:56.289Z,13.27
2022-11-28T04:37:28.556Z,10.70
2022-11-28T04:39:57.840Z,11.60
2022-11-28T04:42:31.372Z,10.67
2022-11-28T04:45:03.720Z,10.93
2022-11-28T04:47:31.732Z,13.60
2022-11-28T04:50:00.034Z,11.53
2022-11-28T04:52:35.333Z,11.80
2022-11-28T04:55:08.320Z,11.17
2022-11-28T04:57:39.774Z,10.23
2022-11-28T05:00:10.367Z,10.67
2022-11-28T05:02:39.993Z,9.20
2022-11-28T05:05:11.142Z,9.50
2022-11-28T05:07:40.427Z,9.60
2022-11-28T05:10:09.260Z,8.10
2022-11-28T05:12:37.164Z,10.73
2022-11-28T05:15:05.735Z,11.17
2022-11-28T05:17:37.702Z,12.00
2022-11-28T05:20:09.525Z,10.97
2022-11-28T05:22:37.492Z,10.17
2022-11-28T05:25:08.096Z,10.53
2022-11-28T05:27:36.041Z,12.53
2022-11-28T05:30:04.668Z,12.10
2022-11-28T05:32:33.169Z,11.00
2022-11-28T05:35:01.007Z,11.53
2022-11-28T05:37:28.994Z,11.67
2022-11-28T05:39:56.820Z,11.60
2022-11-28T05:42:28.376Z,11.87
2022-11-28T05:44:56.235Z,10.87
2022-11-28T05:47:25.236Z,9.40
2022-11-28T05:49:53.124Z,10.77
2022-11-28T05:52:21.006Z,9.57
2022-11-28T05:54:48.890Z,8.83
2022-11-28T05:57:16.850Z,9.50
2022-11-28T05:59:46.125Z,9.03
2022-11-28T06:02:14.026Z,8.80
2022-11-28T06:04:42.183Z,8.67
2022-11-28T06:07:10.145Z,9.40
2022-11-28T06:09:38.089Z,8.30
2022-11-28T06:12:06.519Z,9.33
2022-11-28T06:14:34.385Z,7.00
2022-11-28T06:17:03.597Z,8.17
2022-11-28T06:19:31.479Z,7.30
2022-11-28T06:21:59.315Z,8.57
2022-11-28T06:24:27.370Z,7.90
2022-11-28T06:26:56.049Z,8.73
2022-11-28T06:29:23.923Z,7.03
2022-11-28T06:31:51.867Z,9.37
2022-11-28T06:34:21.131Z,7.80
2022-11-28T06:36:49.066Z,8.93
2022-11-28T06:39:18.041Z,9.43
2022-11-28T06:41:46.125Z,10.03
2022-11-28T06:44:15.035Z,10.13
2022-11-28T06:46:43.326Z,9.27
2022-11-28T06:49:12.881Z,8.03
2022-11-28T06:51:42.634Z,7.67
2022-11-28T06:54:10.761Z,7.40
2022-11-28T06:56:40.428Z,7.10
2022-11-28T06:59:08.706Z,7.30
2022-11-28T07:01:36.681Z,7.87
2022-11-28T07:04:04.650Z,8.83
2022-11-28T07:06:32.501Z,7.77
2022-11-28T07:09:01.906Z,8.03
2022-11-28T07:11:31.806Z,8.90
2022-11-28T07:14:02.067Z,7.33
2022-11-28T07:16:32.003Z,7.70
2022-11-28T07:19:00.667Z,7.97
2022-11-28T07:21:29.073Z,8.60
2022-11-28T07:23:57.065Z,7.97
2022-11-28T07:26:26.594Z,6.97
2022-11-28T07:28:56.029Z,9.83
2022-11-28T07:31:26.714Z,12.97
2022-11-28T07:33:55.262Z,8.20
2022-11-28T07:36:25.900Z,9.10
2022-11-28T07:38:56.166Z,9.20
2022-11-28T07:41:26.778Z,8.20
2022-11-28T07:43:58.079Z,7.73
2022-11-28T07:46:27.469Z,8.20
2022-11-28T07:48:55.731Z,7.17
2022-11-28T07:51:24.890Z,7.23
2022-11-28T07:53:52.866Z,8.00
2022-11-28T07:56:22.761Z,5.97
2022-11-28T07:58:50.938Z,7.90
2022-11-28T08:01:22.310Z,7.73
2022-11-28T08:03:51.240Z,9.50
2022-11-28T08:06:21.866Z,11.23
2022-11-28T08:08:50.696Z,10.60
2022-11-28T08:11:20.559Z,10.83
2022-11-28T08:13:48.652Z,9.60
2022-11-28T08:16:18.800Z,9.57
2022-11-28T08:18:49.009Z,9.73
2022-11-28T08:21:18.747Z,7.90
2022-11-28T08:23:46.973Z,9.03
2022-11-28T08:26:16.751Z,8.87
2022-11-28T08:28:45.223Z,11.73
2022-11-28T08:31:15.168Z,8.20
2022-11-28T08:33:43.515Z,9.50
2022-11-28T08:36:14.398Z,11.60
2022-11-28T08:38:47.020Z,9.03
2022-11-28T08:41:24.026Z,10.07
2022-11-28T08:43:52.117Z,8.83
2022-11-28T08:46:22.427Z,9.03
2022-11-28T08:48:52.533Z,7.60
2022-11-28T08:51:24.841Z,8.47
2022-11-28T08:53:59.066Z,8.50
2022-11-28T08:56:27.592Z,7.50
2022-11-28T08:58:55.596Z,9.33
2022-11-28T09:01:25.877Z,9.27
2022-11-28T09:03:54.781Z,12.60
2022-11-28T09:06:25.790Z,11.30
2022-11-28T09:08:54.553Z,11.20
2022-11-28T09:11:23.913Z,10.63
2022-11-28T09:13:52.164Z,9.63
2022-11-28T09:16:20.196Z,10.47
2022-11-28T09:18:48.396Z,11.03
2022-11-28T09:21:16.818Z,10.90
2022-11-28T09:23:46.524Z,9.17
2022-11-28T09:26:16.961Z,9.07
2022-11-28T09:28:45.513Z,11.20
2022-11-28T09:31:15.007Z,10.10
2022-11-28T09:33:43.593Z,10.13
2022-11-28T09:36:13.133Z,9.70
2022-11-28T09:38:41.557Z,10.13
2022-11-28T09:41:32.621Z,9.87
2022-11-28T09:44:04.278Z,10.73
2022-11-28T09:46:35.581Z,10.80
2022-11-28T09:49:10.342Z,10.87
2022-11-28T09:51:48.682Z,12.63
2022-11-28T09:54:22.146Z,10.80
2022-11-28T09:56:52.496Z,10.67
2022-11-28T09:59:25.357Z,11.50
2022-11-28T10:02:05.689Z,11.13
2022-11-28T10:04:42.530Z,12.03
2022-11-28T10:07:19.369Z,12.10
2022-11-28T10:09:54.425Z,9.80
2022-11-28T10:12:39.313Z,11.47
2022-11-28T10:15:28.145Z,12.03
2022-11-28T10:18:08.139Z,12.07
2022-11-28T10:20:40.641Z,12.50
2022-11-28T10:23:15.936Z,10.37
2022-11-28T10:25:50.071Z,12.03
2022-11-28T10:28:23.970Z,11.23
2022-11-28T10:30:58.850Z,9.70
2022-11-28T10:33:30.643Z,11.40
2022-11-28T10:36:00.741Z,12.20
2022-11-28T10:38:30.691Z,12.23
2022-11-28T10:41:05.686Z,13.77
2022-11-28T10:43:44.612Z,13.63
2022-11-28T10:46:26.903Z,12.77
2022-11-28T10:49:04.590Z,11.10
2022-11-28T10:51:39.362Z,11.30
2022-11-28T10:54:24.802Z,11.47
2022-11-28T10:57:02.122Z,12.50
2022-11-28T10:59:45.410Z,12.40
2022-11-28T11:02:22.534Z,13.53
2022-11-28T11:04:50.463Z,11.80
2022-11-28T11:07:29.264Z,11.17
2022-11-28T11:10:01.596Z,10.70
2022-11-28T11:12:32.632Z,13.50
2022-11-28T11:15:16.938Z,14.00
2022-11-28T11:17:44.791Z,13.67
2022-11-28T11:20:35.842Z,13.10
2022-11-28T11:23:13.174Z,15.37
2022-11-28T11:25:52.126Z,15.10
2022-11-28T11:28:45.434Z,13.60
2022-11-28T11:31:21.695Z,12.90
2022-11-28T11:33:53.048Z,13.03
2022-11-28T11:36:27.515Z,13.37
2022-11-28T11:39:07.759Z,12.40
2022-11-28T11:41:35.807Z,12.90
2022-11-28T11:44:29.759Z,13.20
2022-11-28T11:47:02.835Z,14.40
2022-11-28T11:49:33.053Z,13.20
2022-11-28T11:52:05.392Z,14.57
2022-11-28T11:54:33.407Z,13.27
2022-11-28T11:57:30.931Z,12.77
2022-11-28T11:59:54.679Z,12.40
2022-11-28T12:02:32.348Z,13.67
2022-11-28T12:05:05.075Z,14.90
2022-11-28T12:07:39.658Z,14.90
2022-11-28T12:10:13.584Z,15.80
2022-11-28T12:12:42.306Z,11.43
2022-11-28T12:15:18.181Z,12.13
2022-11-28T12:17:59.304Z,12.60
2022-11-28T12:20:36.121Z,12.93
2022-11-28T12:23:22.286Z,12.60
2022-11-28T12:25:54.485Z,12.17
2022-11-28T12:28:37.457Z,14.83
2022-11-28T12:31:13.612Z,13.10
2022-11-28T12:33:52.009Z,14.03
2022-11-28T12:36:27.797Z,14.47
2022-11-28T12:39:15.224Z,13.77
2022-11-28T12:42:09.324Z,14.97
2022-11-28T12:44:52.389Z,12.47
2022-11-28T12:47:27.511Z,12.30
2022-11-28T12:50:03.934Z,13.00
2022-11-28T12:52:40.665Z,15.20
2022-11-28T12:55:33.353Z,14.37
2022-11-28T12:58:08.231Z,15.03
2022-11-28T13:00:49.016Z,15.00
2022-11-28T13:03:29.349Z,15.30
2022-11-28T13:06:05.427Z,13.77
2022-11-28T13:08:56.507Z,13.67
2022-11-28T13:11:44.961Z,12.37
2022-11-28T13:14:22.993Z,13.63
2022-11-28T13:16:52.685Z,12.93
2022-11-28T13:19:35.511Z,13.43
2022-11-28T13:22:11.065Z,13.90
2022-11-28T13:24:44.617Z,14.00
2022-11-28T13:27:22.063Z,13.67
2022-11-28T13:30:00.816Z,13.87
2022-11-28T13:32:36.951Z,13.77
2022-11-28T13:35:06.250Z,13.73
2022-11-28T13:40:35.702Z,13.17
2022-11-28T13:43:08.738Z,12.60
2022-11-28T13:45:39.707Z,12.73
2022-11-28T13:51:32.036Z,13.53
2022-11-28T13:54:45.181Z,13.17
2022-11-28T13:57:24.219Z,13.40
2022-11-28T14:00:00.093Z,14.37
2022-11-28T14:02:37.633Z,14.03
2022-11-28T14:05:23.060Z,13.33
2022-11-28T14:07:55.878Z,12.40
2022-11-28T14:10:57.268Z,11.67
2022-11-28T14:13:52.304Z,10.87
2022-11-28T14:16:34.592Z,10.40
2022-11-28T14:19:17.714Z,12.23
2022-11-28T14:21:59.975Z,10.77
2022-11-28T14:24:42.851Z,10.20
2022-11-28T14:27:21.712Z,10.30
2022-11-28T14:29:53.977Z,9.07
2022-11-28T14:32:32.855Z,8.50
2022-11-28T14:35:01.818Z,9.97
2022-11-28T14:37:57.632Z,11.60
2022-11-28T14:41:02.971Z,10.00
2022-11-28T14:43:32.220Z,10.03
2022-11-28T14:49:18.900Z,10.27
2022-11-28T14:52:38.361Z,10.57
2022-11-28T14:55:16.889Z,8.60
2022-11-28T14:57:58.580Z,8.77
2022-11-28T15:00:28.756Z,8.90
2022-11-28T15:03:11.382Z,8.60
2022-11-28T15:05:46.299Z,8.80
2022-11-28T15:08:58.543Z,11.20
2022-11-28T15:11:42.589Z,10.87
2022-11-28T15:14:21.824Z,9.90
2022-11-28T15:16:53.084Z,9.30
2022-11-28T15:19:26.190Z,10.17
2022-11-28T15:21:56.523Z,8.77
2022-11-28T15:24:30.778Z,8.37
2022-11-28T15:27:17.769Z,10.00
2022-11-28T15:29:54.681Z,10.43
2022-11-28T15:32:23.190Z,9.27
2022-11-28T15:35:00.072Z,8.23
2022-11-28T15:37:31.870Z,10.20
2022-11-28T15:40:01.676Z,8.40
2022-11-28T15:42:32.166Z,7.30
2022-11-28T15:45:01.597Z,7.93
2022-11-28T15:47:29.758Z,8.57
2022-11-28T15:50:03.176Z,10.03
2022-11-28T15:52:32.990Z,8.67
2022-11-28T15:55:00.876Z,9.63
2022-11-28T15:57:32.488Z,10.00
2022-11-28T16:00:00.417Z,10.00
2022-11-28T16:02:32.555Z,9.20
2022-11-28T16:05:07.195Z,9.20
2022-11-28T16:07:40.899Z,11.23
2022-11-28T16:10:22.140Z,11.30
2022-11-28T16:12:51.036Z,9.37
2022-11-28T16:15:20.673Z,14.20
2022-11-28T16:17:48.758Z,12.20
2022-11-28T16:20:22.234Z,10.10
2022-11-28T16:22:51.542Z,10.63
2022-11-28T16:25:23.785Z,9.93
2022-11-28T16:27:53.925Z,11.43
2022-11-28T16:30:34.624Z,10.80
2022-11-28T16:33:02.498Z,12.43
2022-11-28T16:35:32.153Z,11.30
2022-11-28T16:38:17.420Z,11.80
2022-11-28T16:40:45.845Z,12.10
2022-11-28T16:43:22.118Z,11.70
2022-11-28T16:45:59.001Z,11.50
2022-11-28T16:48:29.453Z,12.80
2022-11-28T16:51:32.716Z,11.80
2022-11-28T16:54:17.455Z,12.90
2022-11-28T16:56:45.603Z,13.20
2022-11-28T16:59:15.124Z,16.43
2022-11-28T17:01:44.912Z,12.47
2022-11-28T17:04:21.880Z,13.47
2022-11-28T17:06:50.427Z,13.83
2022-11-28T17:09:20.246Z,14.30
2022-11-28T17:12:03.174Z,15.67
2022-11-28T17:14:31.275Z,14.40
2022-11-28T17:17:01.573Z,13.07
2022-11-28T17:19:29.464Z,14.03
2022-11-28T17:21:59.942Z,11.60
2022-11-28T17:24:34.188Z,11.60
2022-11-28T17:27:02.835Z,11.03
2022-11-28T17:29:30.732Z,10.97
2022-11-28T17:31:59.430Z,12.77
2022-11-28T17:34:30.730Z,10.30
2022-11-28T17:36:59.390Z,11.90
2022-11-28T17:39:28.479Z,10.47
2022-11-28T17:41:58.625Z,10.60
2022-11-28T17:44:28.802Z,10.37
2022-11-28T17:46:58.493Z,10.07
2022-11-28T17:49:26.492Z,9.17
2022-11-28T17:51:56.126Z,10.10
2022-11-28T17:54:25.793Z,9.83
2022-11-28T17:56:54.691Z,9.23
2022-11-28T17:59:26.923Z,10.23
2022-11-28T18:01:55.011Z,9.70
2022-11-28T18:04:22.956Z,9.87
2022-11-28T18:06:50.810Z,9.93
2022-11-28T18:09:18.945Z,10.37
2022-11-28T18:11:47.269Z,10.27
2022-11-28T18:14:19.197Z,9.47
2022-11-28T18:16:49.318Z,11.03
2022-11-28T18:19:17.274Z,9.57
2022-11-28T18:21:45.504Z,10.23
2022-11-28T18:24:13.515Z,13.00
2022-11-28T18:26:41.472Z,11.33
2022-11-28T18:29:09.525Z,10.50
2022-11-28T18:31:37.697Z,11.17
2022-11-28T18:34:08.452Z,10.70
2022-11-28T18:36:38.107Z,11.33
2022-11-28T18:39:08.892Z,10.40
2022-11-28T18:41:36.942Z,10.60
2022-11-28T18:44:08.056Z,11.13
2022-11-28T18:46:36.293Z,9.80
2022-11-28T18:49:04.345Z,9.73
2022-11-28T18:51:34.922Z,9.87
2022-11-28T18:54:04.695Z,11.80
2022-11-28T18:56:32.571Z,12.03
2022-11-28T18:59:00.533Z,11.07
2022-11-28T19:01:30.619Z,12.23
2022-11-28T19:04:00.223Z,10.77
2022-11-28T19:06:28.401Z,9.80
2022-11-28T19:08:59.579Z,10.23
2022-11-28T19:11:28.590Z,10.80
2022-11-28T19:13:56.973Z,10.43
2022-11-28T19:16:26.660Z,10.33
2022-11-28T19:18:54.618Z,9.90
2022-11-28T19:21:24.358Z,10.30
2022-11-28T19:23:52.987Z,9.03
2022-11-28T19:26:24.780Z,10.40
2022-11-28T19:28:52.735Z,10.80
2022-11-28T19:31:23.280Z,11.97
2022-11-28T19:34:00.809Z,9.43
2022-11-28T19:36:30.223Z,9.57
2022-11-28T19:38:58.884Z,10.10
2022-11-28T19:41:29.530Z,9.43
2022-11-28T19:43:57.405Z,10.57
2022-11-28T19:46:29.191Z,10.10
2022-11-28T19:48:59.995Z,9.93
2022-11-28T19:51:27.867Z,10.37
2022-11-28T19:54:01.418Z,10.67
2022-11-28T19:56:32.564Z,9.90
2022-11-28T19:59:00.518Z,11.17
2022-11-28T20:01:28.679Z,10.40
2022-11-28T20:03:56.866Z,13.57
2022-11-28T20:06:26.736Z,11.40
2022-11-28T20:08:56.575Z,10.63
2022-11-28T20:11:26.055Z,10.40
2022-11-28T20:13:58.853Z,10.67
2022-11-28T20:16:28.984Z,11.47
2022-11-28T20:18:57.117Z,11.03
2022-11-28T20:21:25.048Z,10.40
2022-11-28T20:23:55.074Z,10.90
2022-11-28T20:26:26.705Z,9.73
2022-11-28T20:28:56.160Z,10.40
2022-11-28T20:31:27.568Z,9.90
2022-11-28T20:33:55.942Z,9.20
2022-11-28T20:36:26.124Z,11.43
2022-11-28T20:38:55.744Z,9.60
2022-11-28T20:41:25.348Z,10.27
2022-11-28T20:43:53.296Z,9.70
2022-11-28T20:46:22.915Z,10.03
2022-11-28T20:48:52.954Z,10.57
2022-11-28T20:51:22.910Z,9.00
2022-11-28T20:53:50.785Z,9.40
2022-11-28T20:56:20.289Z,9.00
2022-11-28T20:58:48.175Z,9.47
2022-11-28T21:01:17.274Z,10.23
2022-11-28T21:03:45.312Z,10.50
2022-11-28T21:06:14.544Z,9.43
2022-11-28T21:08:42.507Z,10.00
2022-11-28T21:11:25.230Z,9.03
2022-11-28T21:14:00.014Z,8.93
2022-11-28T21:16:31.668Z,11.13
2022-11-28T21:19:03.232Z,10.40
2022-11-28T21:21:34.326Z,12.80
2022-11-28T21:24:05.035Z,12.63
2022-11-28T21:26:39.196Z,11.90
2022-11-28T21:29:10.343Z,11.47
2022-11-28T21:31:41.206Z,9.87
2022-11-28T21:34:10.676Z,10.70
2022-11-28T21:36:39.872Z,10.47
2022-11-28T21:39:07.847Z,10.57
2022-11-28T21:41:35.730Z,9.13
2022-11-28T21:44:03.606Z,10.60
2022-11-28T21:46:31.590Z,9.90
2022-11-28T21:48:59.484Z,10.47
2022-11-28T21:51:28.471Z,10.13
2022-11-28T21:53:58.443Z,9.07
2022-11-28T21:56:26.954Z,9.60
2022-11-28T21:58:55.226Z,9.50
2022-11-28T22:01:23.253Z,8.43
2022-11-28T22:03:51.218Z,10.97
2022-11-28T22:06:21.603Z,9.20
2022-11-28T22:08:49.663Z,8.37
2022-11-28T22:11:19.425Z,10.40
2022-11-28T22:13:48.302Z,9.03
2022-11-28T22:16:18.475Z,9.97
2022-11-28T22:18:46.891Z,9.80
2022-11-28T22:24:04.532Z,11.40
2022-11-28T22:26:34.354Z,10.10
2022-11-28T22:29:03.909Z,10.47
2022-11-28T22:31:31.983Z,11.50
2022-11-28T22:34:00.090Z,10.93
2022-11-28T22:36:28.049Z,11.43
2022-11-28T22:38:57.407Z,11.27
2022-11-28T22:41:29.025Z,10.37
2022-11-28T22:44:01.785Z,9.90
2022-11-28T22:46:30.366Z,12.40
2022-11-28T22:49:00.343Z,11.20
2022-11-28T22:51:28.915Z,13.13
2022-11-28T22:53:58.777Z,11.13
2022-11-28T22:56:27.128Z,10.93
2022-11-28T22:58:55.101Z,12.50
2022-11-28T23:01:26.593Z,11.10
2022-11-28T23:03:55.273Z,12.50
2022-11-28T23:06:25.358Z,11.17
2022-11-28T23:08:53.934Z,10.00
2022-11-28T23:11:24.334Z,10.30
2022-11-28T23:13:52.801Z,11.43
2022-11-28T23:16:24.945Z,13.70
2022-11-28T23:18:55.379Z,13.47
2022-11-28T23:21:25.193Z,13.97
2022-11-28T23:23:53.327Z,12.93
2022-11-28T23:26:23.632Z,15.73
2022-11-28T23:28:52.263Z,13.93
2022-11-28T23:31:22.208Z,12.60
2022-11-28T23:33:51.933Z,12.40
2022-11-28T23:36:21.910Z,12.97
2022-11-28T23:38:51.726Z,14.87
2022-11-28T23:41:20.122Z,14.83
2022-11-28T23:43:48.254Z,14.07
2022-11-28T23:46:17.057Z,14.87
2022-11-28T23:48:45.613Z,14.03
2022-11-28T23:51:15.910Z,11.53
2022-11-28T23:53:44.493Z,11.93
2022-11-28T23:56:14.697Z,11.17
2022-11-28T23:58:43.204Z,10.83
